sensor_id;sensor_type;location;lat;lon;timestamp;pressure;altitude;pressure_sealevel;temperature;humidity
51081;BME280;37130;55.670;37.596;2023-06-22T04:44:30;99658.00;;;28.67;34.13
51081;BME280;37130;55.670;37.596;2023-06-22T04:46:59;99664.94;;;29.14;30.19
51081;BME280;37130;55.670;37.596;2023-06-22T04:49:36;99655.19;;;29.26;29.39
51081;BME280;37130;55.670;37.596;2023-06-22T04:52:08;99651.88;;;29.67;28.46
51081;BME280;37130;55.670;37.596;2023-06-22T04:54:38;99655.19;;;30.12;28.09
51081;BME280;37130;55.670;37.596;2023-06-22T04:57:07;99655.53;;;30.65;27.32
51081;BME280;37130;55.670;37.596;2023-06-22T04:59:38;99644.88;;;31.18;26.33
51081;BME280;37130;55.670;37.596;2023-06-22T05:02:09;99650.81;;;31.29;26.12
51081;BME280;37130;55.670;37.596;2023-06-22T05:04:37;99656.03;;;31.17;26.00
51081;BME280;37130;55.670;37.596;2023-06-22T05:07:07;99662.38;;;31.31;25.16
51081;BME280;37130;55.670;37.596;2023-06-22T05:09:34;99654.44;;;31.42;25.45
51081;BME280;37130;55.670;37.596;2023-06-22T05:12:02;99659.53;;;31.59;25.04
51081;BME280;37130;55.670;37.596;2023-06-22T05:14:34;99663.28;;;31.38;25.63
51081;BME280;37130;55.670;37.596;2023-06-22T05:17:01;99665.81;;;31.46;25.09
51081;BME280;37130;55.670;37.596;2023-06-22T05:19:31;99652.06;;;31.33;24.90
51081;BME280;37130;55.670;37.596;2023-06-22T05:22:01;99664.81;;;31.06;25.25
51081;BME280;37130;55.670;37.596;2023-06-22T05:24:29;99662.28;;;31.65;25.18
51081;BME280;37130;55.670;37.596;2023-06-22T05:26:56;99662.22;;;32.79;24.37
51081;BME280;37130;55.670;37.596;2023-06-22T05:29:23;99657.88;;;33.48;23.37
51081;BME280;37130;55.670;37.596;2023-06-22T05:31:51;99663.47;;;33.73;23.33
51081;BME280;37130;55.670;37.596;2023-06-22T05:34:19;99665.78;;;34.01;23.14
51081;BME280;37130;55.670;37.596;2023-06-22T05:36:46;99656.00;;;34.12;22.93
51081;BME280;37130;55.670;37.596;2023-06-22T05:39:14;99650.59;;;34.42;22.43
51081;BME280;37130;55.670;37.596;2023-06-22T05:41:42;99661.13;;;34.88;22.36
51081;BME280;37130;55.670;37.596;2023-06-22T05:44:12;99668.56;;;35.37;21.90
51081;BME280;37130;55.670;37.596;2023-06-22T05:46:41;99653.09;;;35.66;21.53
51081;BME280;37130;55.670;37.596;2023-06-22T05:49:13;99658.59;;;36.08;21.51
51081;BME280;37130;55.670;37.596;2023-06-22T05:51:41;99658.09;;;36.46;21.39
51081;BME280;37130;55.670;37.596;2023-06-22T05:54:08;99661.34;;;36.67;20.85
51081;BME280;37130;55.670;37.596;2023-06-22T05:56:43;99668.44;;;36.51;20.49
51081;BME280;37130;55.670;37.596;2023-06-22T05:59:10;99663.13;;;36.49;20.79
51081;BME280;37130;55.670;37.596;2023-06-22T06:01:38;99668.91;;;36.48;20.07
51081;BME280;37130;55.670;37.596;2023-06-22T06:04:07;99665.06;;;36.49;20.59
51081;BME280;37130;55.670;37.596;2023-06-22T06:06:37;99657.53;;;36.56;20.09
51081;BME280;37130;55.670;37.596;2023-06-22T06:09:05;99665.06;;;36.49;20.61
51081;BME280;37130;55.670;37.596;2023-06-22T06:11:32;99653.13;;;35.47;21.04
51081;BME280;37130;55.670;37.596;2023-06-22T06:14:00;99661.09;;;35.25;21.28
51081;BME280;37130;55.670;37.596;2023-06-22T06:16:27;99645.78;;;35.60;21.11
51081;BME280;37130;55.670;37.596;2023-06-22T06:18:55;99647.41;;;35.91;21.09
51081;BME280;37130;55.670;37.596;2023-06-22T06:21:23;99643.56;;;35.92;20.13
51081;BME280;37130;55.670;37.596;2023-06-22T06:23:50;99641.72;;;36.16;20.32
51081;BME280;37130;55.670;37.596;2023-06-22T06:26:18;99662.72;;;35.75;20.29
51081;BME280;37130;55.670;37.596;2023-06-22T06:28:56;99661.97;;;35.68;20.91
51081;BME280;37130;55.670;37.596;2023-06-22T06:31:24;99649.78;;;35.75;21.00
51081;BME280;37130;55.670;37.596;2023-06-22T06:33:55;99649.06;;;35.80;20.59
51081;BME280;37130;55.670;37.596;2023-06-22T06:36:23;99660.31;;;35.78;20.49
51081;BME280;37130;55.670;37.596;2023-06-22T06:38:50;99647.72;;;35.71;20.53
51081;BME280;37130;55.670;37.596;2023-06-22T06:41:18;99656.13;;;35.16;21.06
51081;BME280;37130;55.670;37.596;2023-06-22T06:43:46;99654.16;;;34.24;21.60
51081;BME280;37130;55.670;37.596;2023-06-22T06:46:13;99652.16;;;34.56;21.22
51081;BME280;37130;55.670;37.596;2023-06-22T06:48:41;99641.69;;;34.83;20.87
51081;BME280;37130;55.670;37.596;2023-06-22T06:51:09;99653.53;;;35.02;20.65
51081;BME280;37130;55.670;37.596;2023-06-22T06:53:38;99652.69;;;35.50;20.17
51081;BME280;37130;55.670;37.596;2023-06-22T06:56:05;99645.78;;;35.29;20.58
51081;BME280;37130;55.670;37.596;2023-06-22T06:58:33;99642.69;;;34.71;20.61
51081;BME280;37130;55.670;37.596;2023-06-22T07:01:01;99644.94;;;34.37;21.14
51081;BME280;37130;55.670;37.596;2023-06-22T07:03:28;99653.50;;;34.29;21.47
51081;BME280;37130;55.670;37.596;2023-06-22T07:05:56;99643.47;;;34.16;21.24
51081;BME280;37130;55.670;37.596;2023-06-22T07:08:23;99638.72;;;34.48;21.05
51081;BME280;37130;55.670;37.596;2023-06-22T07:10:54;99635.03;;;34.11;21.32
51081;BME280;37130;55.670;37.596;2023-06-22T07:13:22;99645.63;;;33.50;22.05
51081;BME280;37130;55.670;37.596;2023-06-22T07:15:49;99634.44;;;32.48;22.48
51081;BME280;37130;55.670;37.596;2023-06-22T07:18:17;99640.81;;;31.96;23.21
51081;BME280;37130;55.670;37.596;2023-06-22T07:20:44;99638.16;;;31.21;23.77
51081;BME280;37130;55.670;37.596;2023-06-22T07:23:12;99638.53;;;30.63;24.26
51081;BME280;37130;55.670;37.596;2023-06-22T07:25:40;99641.44;;;30.55;24.94
51081;BME280;37130;55.670;37.596;2023-06-22T07:28:08;99622.91;;;30.98;24.95
51081;BME280;37130;55.670;37.596;2023-06-22T07:30:36;99633.19;;;31.58;24.29
51081;BME280;37130;55.670;37.596;2023-06-22T07:33:03;99630.66;;;31.56;23.89
51081;BME280;37130;55.670;37.596;2023-06-22T07:35:34;99621.97;;;31.33;23.92
51081;BME280;37130;55.670;37.596;2023-06-22T07:38:01;99603.13;;;30.96;25.25
51081;BME280;37130;55.670;37.596;2023-06-22T07:40:32;99635.97;;;31.03;24.38
51081;BME280;37130;55.670;37.596;2023-06-22T07:43:01;99631.03;;;30.78;25.31
51081;BME280;37130;55.670;37.596;2023-06-22T07:45:29;99624.53;;;30.45;25.05
51081;BME280;37130;55.670;37.596;2023-06-22T07:47:57;99625.34;;;29.61;25.90
51081;BME280;37130;55.670;37.596;2023-06-22T07:50:25;99630.00;;;29.24;26.55
51081;BME280;37130;55.670;37.596;2023-06-22T07:52:52;99620.91;;;29.38;26.51
51081;BME280;37130;55.670;37.596;2023-06-22T07:55:20;99632.97;;;29.93;26.15
51081;BME280;37130;55.670;37.596;2023-06-22T07:57:49;99620.44;;;30.27;25.97
51081;BME280;37130;55.670;37.596;2023-06-22T08:00:19;99610.81;;;30.38;25.96
51081;BME280;37130;55.670;37.596;2023-06-22T08:02:47;99617.66;;;29.92;26.40
51081;BME280;37130;55.670;37.596;2023-06-22T08:05:15;99626.31;;;29.75;26.50
51081;BME280;37130;55.670;37.596;2023-06-22T08:07:49;99615.09;;;29.26;26.46
51081;BME280;37130;55.670;37.596;2023-06-22T08:10:18;99620.34;;;29.07;27.74
51081;BME280;37130;55.670;37.596;2023-06-22T08:12:46;99616.59;;;28.93;27.52
51081;BME280;37130;55.670;37.596;2023-06-22T08:15:13;99611.63;;;28.81;27.58
51081;BME280;37130;55.670;37.596;2023-06-22T08:17:41;99600.00;;;28.43;27.38
51081;BME280;37130;55.670;37.596;2023-06-22T08:20:09;99599.34;;;28.11;27.84
51081;BME280;37130;55.670;37.596;2023-06-22T08:22:39;99603.75;;;28.12;28.12
51081;BME280;37130;55.670;37.596;2023-06-22T08:25:08;99601.50;;;28.01;28.47
51081;BME280;37130;55.670;37.596;2023-06-22T08:27:36;99588.97;;;27.92;28.82
51081;BME280;37130;55.670;37.596;2023-06-22T08:30:04;99594.09;;;28.25;28.33
51081;BME280;37130;55.670;37.596;2023-06-22T08:32:32;99595.72;;;28.49;28.93
51081;BME280;37130;55.670;37.596;2023-06-22T08:35:00;99591.81;;;28.73;28.10
51081;BME280;37130;55.670;37.596;2023-06-22T08:37:29;99591.72;;;29.02;27.41
51081;BME280;37130;55.670;37.596;2023-06-22T08:40:05;99599.25;;;28.64;27.65
51081;BME280;37130;55.670;37.596;2023-06-22T08:42:39;99580.75;;;28.30;28.25
51081;BME280;37130;55.670;37.596;2023-06-22T08:45:08;99571.91;;;28.72;27.90
51081;BME280;37130;55.670;37.596;2023-06-22T08:47:35;99591.66;;;29.11;27.88
51081;BME280;37130;55.670;37.596;2023-06-22T08:50:03;99577.38;;;28.94;27.87
51081;BME280;37130;55.670;37.596;2023-06-22T08:52:32;99595.00;;;28.76;27.94
51081;BME280;37130;55.670;37.596;2023-06-22T08:54:59;99593.44;;;28.67;27.30
51081;BME280;37130;55.670;37.596;2023-06-22T08:57:29;99579.44;;;28.55;28.05
51081;BME280;37130;55.670;37.596;2023-06-22T08:59:57;99578.13;;;28.51;28.09
51081;BME280;37130;55.670;37.596;2023-06-22T09:02:26;99568.44;;;28.34;28.48
51081;BME280;37130;55.670;37.596;2023-06-22T09:04:58;99563.94;;;28.11;28.41
51081;BME280;37130;55.670;37.596;2023-06-22T09:07:26;99578.22;;;27.99;28.47
51081;BME280;37130;55.670;37.596;2023-06-22T18:01:50;99270.97;;;18.76;45.76
51081;BME280;37130;55.670;37.596;2023-06-22T18:04:18;99277.31;;;18.75;46.55
51081;BME280;37130;55.670;37.596;2023-06-22T18:06:47;99272.16;;;18.72;47.04
51081;BME280;37130;55.670;37.596;2023-06-22T18:09:16;99276.44;;;18.74;47.51
51081;BME280;37130;55.670;37.596;2023-06-22T18:11:49;99277.41;;;18.73;47.47
51081;BME280;37130;55.670;37.596;2023-06-22T18:14:19;99276.63;;;18.82;47.68
51081;BME280;37130;55.670;37.596;2023-06-22T18:16:49;99271.38;;;18.81;48.05
51081;BME280;37130;55.670;37.596;2023-06-22T18:19:18;99261.19;;;18.75;48.12
51081;BME280;37130;55.670;37.596;2023-06-22T18:21:47;99263.56;;;18.68;48.08
51081;BME280;37130;55.670;37.596;2023-06-22T18:24:16;99265.34;;;18.68;48.02
51081;BME280;37130;55.670;37.596;2023-06-22T18:26:44;99254.72;;;18.56;48.49
51081;BME280;37130;55.670;37.596;2023-06-22T18:29:12;99275.53;;;18.64;48.51
51081;BME280;37130;55.670;37.596;2023-06-22T18:31:40;99270.53;;;18.59;48.69
51081;BME280;37130;55.670;37.596;2023-06-22T18:34:09;99267.56;;;18.53;49.04
51081;BME280;37130;55.670;37.596;2023-06-22T18:36:45;99267.94;;;18.48;49.07
51081;BME280;37130;55.670;37.596;2023-06-22T18:39:13;99273.56;;;18.45;49.37
51081;BME280;37130;55.670;37.596;2023-06-22T18:41:48;99261.66;;;18.38;49.34
51081;BME280;37130;55.670;37.596;2023-06-22T18:44:32;99265.47;;;18.35;49.21
51081;BME280;37130;55.670;37.596;2023-06-22T18:47:04;99265.53;;;18.24;49.70
51081;BME280;37130;55.670;37.596;2023-06-22T18:52:15;99262.19;;;18.11;49.87
51081;BME280;37130;55.670;37.596;2023-06-22T18:54:48;99265.25;;;18.06;49.97
51081;BME280;37130;55.670;37.596;2023-06-22T18:57:21;99262.09;;;18.01;50.29
51081;BME280;37130;55.670;37.596;2023-06-22T19:04:45;99251.81;;;17.85;50.72
51081;BME280;37130;55.670;37.596;2023-06-22T19:07:12;99256.59;;;17.82;50.84
51081;BME280;37130;55.670;37.596;2023-06-22T19:09:40;99250.00;;;17.74;50.51
51081;BME280;37130;55.670;37.596;2023-06-22T19:12:18;99250.75;;;17.65;50.68
51081;BME280;37130;55.670;37.596;2023-06-22T19:15:09;99261.25;;;17.57;50.87
51081;BME280;37130;55.670;37.596;2023-06-22T19:17:41;99260.28;;;17.58;51.00
51081;BME280;37130;55.670;37.596;2023-06-22T19:20:11;99244.72;;;17.52;51.54
51081;BME280;37130;55.670;37.596;2023-06-22T19:22:56;99240.22;;;17.41;51.31
51081;BME280;37130;55.670;37.596;2023-06-22T19:25:28;99244.84;;;17.39;51.81
51081;BME280;37130;55.670;37.596;2023-06-22T19:28:01;99245.25;;;17.35;51.70
51081;BME280;37130;55.670;37.596;2023-06-22T19:30:31;99247.53;;;17.39;51.83
51081;BME280;37130;55.670;37.596;2023-06-22T19:32:59;99250.97;;;17.30;51.98
51081;BME280;37130;55.670;37.596;2023-06-22T19:35:28;99257.75;;;17.34;52.53
51081;BME280;37130;55.670;37.596;2023-06-22T19:37:57;99244.25;;;17.36;52.28
51081;BME280;37130;55.670;37.596;2023-06-22T19:40:25;99234.91;;;17.30;52.43
51081;BME280;37130;55.670;37.596;2023-06-22T19:42:53;99255.97;;;17.35;52.37
51081;BME280;37130;55.670;37.596;2023-06-22T19:45:24;99241.69;;;17.34;52.59
51081;BME280;37130;55.670;37.596;2023-06-22T19:47:51;99249.25;;;17.29;53.03
51081;BME280;37130;55.670;37.596;2023-06-22T19:50:20;99230.91;;;17.13;53.21
51081;BME280;37130;55.670;37.596;2023-06-22T19:52:53;99232.75;;;17.13;53.34
51081;BME280;37130;55.670;37.596;2023-06-22T19:55:21;99227.63;;;17.09;52.99
51081;BME280;37130;55.670;37.596;2023-06-22T19:57:49;99227.31;;;17.03;53.89
51081;BME280;37130;55.670;37.596;2023-06-22T20:00:21;99233.13;;;16.97;53.16
51081;BME280;37130;55.670;37.596;2023-06-22T20:02:52;99225.09;;;16.97;53.13
51081;BME280;37130;55.670;37.596;2023-06-22T20:05:21;99218.91;;;16.85;53.15
51081;BME280;37130;55.670;37.596;2023-06-22T20:07:50;99222.19;;;16.89;53.30
51081;BME280;37130;55.670;37.596;2023-06-22T20:10:18;99199.94;;;16.77;53.26
51081;BME280;37130;55.670;37.596;2023-06-22T20:12:51;99212.84;;;16.83;53.12
51081;BME280;37130;55.670;37.596;2023-06-22T20:15:26;99217.94;;;16.86;53.34
51081;BME280;37130;55.670;37.596;2023-06-22T20:18:13;99213.03;;;16.69;53.44
51081;BME280;37130;55.670;37.596;2023-06-22T20:20:45;99219.47;;;16.66;53.67
51081;BME280;37130;55.670;37.596;2023-06-22T20:23:21;99197.97;;;16.56;53.93
51081;BME280;37130;55.670;37.596;2023-06-22T20:25:50;99207.34;;;16.62;53.93
51081;BME280;37130;55.670;37.596;2023-06-22T20:28:19;99203.91;;;16.60;54.17
51081;BME280;37130;55.670;37.596;2023-06-22T20:31:06;99205.63;;;16.50;53.84
51081;BME280;37130;55.670;37.596;2023-06-22T20:33:34;99194.06;;;16.49;54.41
51081;BME280;37130;55.670;37.596;2023-06-22T20:36:05;99187.75;;;16.50;54.14
51081;BME280;37130;55.670;37.596;2023-06-22T20:38:34;99185.22;;;16.49;54.20
51081;BME280;37130;55.670;37.596;2023-06-22T20:41:03;99186.91;;;16.50;53.83
51081;BME280;37130;55.670;37.596;2023-06-22T20:43:34;99181.81;;;16.47;54.41
51081;BME280;37130;55.670;37.596;2023-06-22T20:46:04;99182.41;;;16.50;54.00
51081;BME280;37130;55.670;37.596;2023-06-22T20:48:46;99178.88;;;16.50;54.19
51081;BME280;37130;55.670;37.596;2023-06-22T20:51:14;99176.22;;;16.50;54.26
51081;BME280;37130;55.670;37.596;2023-06-22T20:53:44;99170.38;;;16.44;54.15
51081;BME280;37130;55.670;37.596;2023-06-22T20:56:12;99166.97;;;16.42;54.07
51081;BME280;37130;55.670;37.596;2023-06-22T20:58:39;99169.41;;;16.46;54.49
51081;BME280;37130;55.670;37.596;2023-06-22T21:01:07;99164.91;;;16.46;54.12
51081;BME280;37130;55.670;37.596;2023-06-22T21:03:35;99149.00;;;16.33;54.25
51081;BME280;37130;55.670;37.596;2023-06-22T21:06:02;99163.59;;;16.40;54.47
51081;BME280;37130;55.670;37.596;2023-06-22T21:08:30;99156.91;;;16.35;54.59
51081;BME280;37130;55.670;37.596;2023-06-22T21:10:58;99156.91;;;16.35;54.50
51081;BME280;37130;55.670;37.596;2023-06-22T21:13:25;99149.00;;;16.33;54.21
51081;BME280;37130;55.670;37.596;2023-06-22T21:15:53;99155.69;;;16.28;54.42
51081;BME280;37130;55.670;37.596;2023-06-22T21:18:20;99151.66;;;16.33;54.17
51081;BME280;37130;55.670;37.596;2023-06-22T21:20:48;99143.41;;;16.25;54.38
51081;BME280;37130;55.670;37.596;2023-06-22T21:23:15;99149.59;;;16.37;55.04
51081;BME280;37130;55.670;37.596;2023-06-22T21:25:43;99158.34;;;16.39;54.94
51081;BME280;37130;55.670;37.596;2023-06-22T21:28:10;99156.75;;;16.36;54.25
51081;BME280;37130;55.670;37.596;2023-06-22T21:30:38;99159.19;;;16.28;54.01
51081;BME280;37130;55.670;37.596;2023-06-22T21:33:06;99149.84;;;16.23;54.03
51081;BME280;37130;55.670;37.596;2023-06-22T21:35:37;99148.25;;;16.20;53.87
51081;BME280;37130;55.670;37.596;2023-06-22T21:38:05;99143.16;;;16.17;54.63
51081;BME280;37130;55.670;37.596;2023-06-22T21:40:32;99133.56;;;16.14;54.21
51081;BME280;37130;55.670;37.596;2023-06-22T21:43:00;99145.78;;;16.06;54.11
51081;BME280;37130;55.670;37.596;2023-06-22T21:45:30;99134.75;;;15.99;54.33
51081;BME280;37130;55.670;37.596;2023-06-22T21:47:58;99135.25;;;15.93;54.31
51081;BME280;37130;55.670;37.596;2023-06-22T21:50:26;99128.41;;;15.89;54.43
51081;BME280;37130;55.670;37.596;2023-06-22T21:52:53;99134.34;;;15.81;54.86
51081;BME280;37130;55.670;37.596;2023-06-22T21:55:20;99125.50;;;15.81;54.22
51081;BME280;37130;55.670;37.596;2023-06-22T21:57:48;99115.50;;;15.71;54.76
51081;BME280;37130;55.670;37.596;2023-06-22T22:00:15;99110.94;;;15.61;54.98
51081;BME280;37130;55.670;37.596;2023-06-22T22:02:43;99094.16;;;15.47;55.25
51081;BME280;37130;55.670;37.596;2023-06-22T22:05:11;99108.41;;;15.59;54.70
51081;BME280;37130;55.670;37.596;2023-06-22T22:07:39;99103.09;;;15.59;55.34
51081;BME280;37130;55.670;37.596;2023-06-22T22:10:06;99101.50;;;15.56;54.89
51081;BME280;37130;55.670;37.596;2023-06-22T22:12:37;99100.50;;;15.57;55.09
51081;BME280;37130;55.670;37.596;2023-06-22T22:15:05;99089.22;;;15.54;55.12
51081;BME280;37130;55.670;37.596;2023-06-22T22:17:33;99081.91;;;15.45;55.54
51081;BME280;37130;55.670;37.596;2023-06-22T22:20:02;99084.91;;;15.40;55.53
51081;BME280;37130;55.670;37.596;2023-06-22T22:22:32;99063.94;;;15.36;55.34
51081;BME280;37130;55.670;37.596;2023-06-22T22:24:59;99045.44;;;15.21;55.85
51081;BME280;37130;55.670;37.596;2023-06-22T22:27:30;99064.28;;;15.31;55.98
51081;BME280;37130;55.670;37.596;2023-06-22T22:29:57;99079.03;;;15.24;55.95
51081;BME280;37130;55.670;37.596;2023-06-22T22:32:25;99087.47;;;15.30;55.99
51081;BME280;37130;55.670;37.596;2023-06-22T22:34:52;99084.78;;;15.30;55.37
51081;BME280;37130;55.670;37.596;2023-06-22T22:37:20;99078.88;;;15.14;55.68
51081;BME280;37130;55.670;37.596;2023-06-22T22:39:47;99102.69;;;15.17;55.65
51081;BME280;37130;55.670;37.596;2023-06-22T22:42:16;99088.47;;;15.17;55.91
51081;BME280;37130;55.670;37.596;2023-06-22T22:44:44;99072.25;;;15.20;55.17
51081;BME280;37130;55.670;37.596;2023-06-22T22:47:12;99051.84;;;15.07;55.88
51081;BME280;37130;55.670;37.596;2023-06-22T22:49:39;99098.63;;;15.11;55.94
51081;BME280;37130;55.670;37.596;2023-06-22T22:52:08;99044.56;;;15.09;55.27
51081;BME280;37130;55.670;37.596;2023-06-22T22:54:36;99076.69;;;15.08;55.48
51081;BME280;37130;55.670;37.596;2023-06-22T22:57:07;99078.28;;;15.10;55.70
51081;BME280;37130;55.670;37.596;2023-06-22T22:59:35;99081.69;;;15.12;55.66
51081;BME280;37130;55.670;37.596;2023-06-22T23:02:03;99061.41;;;15.10;55.31
51081;BME280;37130;55.670;37.596;2023-06-22T23:04:30;99062.84;;;15.03;55.37
51081;BME280;37130;55.670;37.596;2023-06-22T23:06:59;99059.06;;;14.94;55.34
51081;BME280;37130;55.670;37.596;2023-06-22T23:09:27;99063.31;;;14.97;55.75
51081;BME280;37130;55.670;37.596;2023-06-22T23:11:54;99064.66;;;15.02;55.23
51081;BME280;37130;55.670;37.596;2023-06-22T23:14:22;99058.81;;;14.97;55.87
51081;BME280;37130;55.670;37.596;2023-06-22T23:16:49;99047.41;;;14.95;55.60
51081;BME280;37130;55.670;37.596;2023-06-22T23:19:17;99060.38;;;14.88;55.70
51081;BME280;37130;55.670;37.596;2023-06-22T23:21:45;99055.22;;;14.85;56.09
51081;BME280;37130;55.670;37.596;2023-06-22T23:24:12;99045.78;;;14.81;55.69
51081;BME280;37130;55.670;37.596;2023-06-22T23:26:39;99057.34;;;14.93;55.85
51081;BME280;37130;55.670;37.596;2023-06-22T23:29:07;99066.59;;;15.00;55.64
51081;BME280;37130;55.670;37.596;2023-06-22T23:31:34;99058.72;;;14.99;55.87
51081;BME280;37130;55.670;37.596;2023-06-22T23:34:02;99061.94;;;14.91;55.83
51081;BME280;37130;55.670;37.596;2023-06-22T23:36:31;99055.97;;;14.87;55.93
51081;BME280;37130;55.670;37.596;2023-06-22T23:38:58;99054.75;;;14.80;56.00
51081;BME280;37130;55.670;37.596;2023-06-22T23:41:26;99051.47;;;14.88;55.87
51081;BME280;37130;55.670;37.596;2023-06-22T23:43:54;99052.19;;;14.79;56.30
51081;BME280;37130;55.670;37.596;2023-06-22T23:46:22;99058.03;;;14.84;56.28
51081;BME280;37130;55.670;37.596;2023-06-22T23:48:49;99043.72;;;14.85;56.06
51081;BME280;37130;55.670;37.596;2023-06-22T23:51:17;99041.28;;;14.82;55.95
51081;BME280;37130;55.670;37.596;2023-06-22T23:53:45;99036.56;;;14.85;56.33
51081;BME280;37130;55.670;37.596;2023-06-22T23:56:12;99033.28;;;14.82;56.53
51081;BME280;37130;55.670;37.596;2023-06-22T23:58:40;99030.34;;;14.74;56.60
